createdAt,value
2023-05-17T00:00:03.633Z,16.62
2023-05-17T00:02:31.363Z,16.62
2023-05-17T00:05:00.446Z,16.62
2023-05-17T00:07:28.105Z,16.60
2023-05-17T00:09:55.851Z,16.61
2023-05-17T00:12:23.767Z,16.59
2023-05-17T00:14:51.427Z,16.59
2023-05-17T00:17:19.037Z,16.60
2023-05-17T00:19:46.801Z,16.58
2023-05-17T00:22:16.066Z,16.59
2023-05-17T00:24:44.047Z,16.60
2023-05-17T00:27:11.682Z,16.59
2023-05-17T00:29:39.310Z,16.58
2023-05-17T00:32:07.595Z,16.56
2023-05-17T00:34:35.352Z,16.57
2023-05-17T00:37:03.157Z,16.57
2023-05-17T00:39:32.144Z,16.58
2023-05-17T00:42:01.922Z,16.57
2023-05-17T00:44:29.580Z,16.58
2023-05-17T00:46:59.631Z,16.58
2023-05-17T00:49:27.720Z,16.59
2023-05-17T00:51:55.929Z,16.61
2023-05-17T00:54:23.991Z,16.59
2023-05-17T00:56:53.484Z,16.60
2023-05-17T00:59:22.394Z,16.61
2023-05-17T01:01:51.460Z,16.60
2023-05-17T01:04:19.759Z,16.61
2023-05-17T01:06:47.513Z,16.62
2023-05-17T01:09:15.265Z,16.60
2023-05-17T01:11:54.984Z,16.60
2023-05-17T01:14:34.902Z,16.60
2023-05-17T01:17:07.083Z,16.59
2023-05-17T01:19:55.198Z,16.59
2023-05-17T01:22:35.308Z,16.58
2023-05-17T01:25:13.822Z,16.58
2023-05-17T01:27:48.103Z,16.57
2023-05-17T01:30:18.983Z,16.56
2023-05-17T01:32:48.966Z,16.56
2023-05-17T01:35:18.939Z,16.55
2023-05-17T01:37:48.183Z,16.55
2023-05-17T01:40:19.017Z,16.54
2023-05-17T01:42:54.579Z,16.54
2023-05-17T01:45:28.466Z,16.55
2023-05-17T01:48:17.484Z,16.54
2023-05-17T01:50:51.554Z,16.54
2023-05-17T01:53:27.981Z,16.53
2023-05-17T01:56:05.483Z,16.53
2023-05-17T01:58:45.730Z,16.52
2023-05-17T02:01:18.596Z,16.52
2023-05-17T02:03:51.082Z,16.52
2023-05-17T02:06:20.384Z,16.53
2023-05-17T02:08:49.984Z,16.52
2023-05-17T02:11:19.328Z,16.53
2023-05-17T02:13:50.052Z,16.51
2023-05-17T02:16:19.419Z,16.52
2023-05-17T02:18:48.548Z,16.52
2023-05-17T02:21:18.916Z,16.53
2023-05-17T02:23:49.041Z,16.55
2023-05-17T02:26:24.252Z,16.54
2023-05-17T02:28:55.171Z,16.55
2023-05-17T02:31:25.333Z,16.55
2023-05-17T02:33:55.200Z,16.55
2023-05-17T02:36:24.466Z,16.54
2023-05-17T02:38:53.766Z,16.54
2023-05-17T02:41:23.286Z,16.55
2023-05-17T02:43:52.626Z,16.55
2023-05-17T02:46:23.566Z,16.54
2023-05-17T02:48:52.951Z,16.54
2023-05-17T02:51:22.148Z,16.55
2023-05-17T02:53:51.244Z,16.52
2023-05-17T02:56:20.535Z,16.53
2023-05-17T02:58:49.893Z,16.52
2023-05-17T03:01:19.052Z,16.52
2023-05-17T03:03:52.215Z,16.51
2023-05-17T03:06:23.516Z,16.51
2023-05-17T03:09:08.828Z,16.52
2023-05-17T03:11:38.057Z,16.50
2023-05-17T03:14:11.559Z,16.50
2023-05-17T03:16:40.989Z,16.51
2023-05-17T03:19:12.815Z,16.50
2023-05-17T03:21:42.266Z,16.51
2023-05-17T03:24:11.645Z,16.49
2023-05-17T03:26:41.076Z,16.50
2023-05-17T03:29:10.250Z,16.50
2023-05-17T03:31:40.068Z,16.50
2023-05-17T03:34:09.480Z,16.50
2023-05-17T03:36:41.140Z,16.49
2023-05-17T03:39:10.380Z,16.49
2023-05-17T03:41:39.621Z,16.49
2023-05-17T03:44:22.665Z,16.49
2023-05-17T03:46:54.031Z,16.48
2023-05-17T03:49:23.389Z,16.48
2023-05-17T03:51:54.152Z,16.48
2023-05-17T03:54:23.517Z,16.49
2023-05-17T03:56:52.706Z,16.50
2023-05-17T03:59:21.891Z,16.50
2023-05-17T04:01:51.229Z,16.50
2023-05-17T04:04:20.360Z,16.51
2023-05-17T05:10:33.811Z,16.59
2023-05-17T07:23:25.377Z,16.62
2023-05-17T07:25:53.025Z,16.60
2023-05-17T07:28:20.652Z,16.61
2023-05-17T07:30:48.341Z,16.59
2023-05-17T07:33:16.062Z,16.59
2023-05-17T07:35:43.696Z,16.59
2023-05-17T07:38:11.572Z,16.58
2023-05-17T07:40:40.666Z,16.58
2023-05-17T07:43:13.275Z,16.58
2023-05-17T07:45:41.008Z,16.58
2023-05-17T07:48:08.925Z,16.58
2023-05-17T07:50:36.692Z,16.58
2023-05-17T07:53:04.334Z,16.58
2023-05-17T07:55:31.953Z,16.56
2023-05-17T07:58:01.097Z,16.56
2023-05-17T08:00:29.266Z,16.56
2023-05-17T08:02:57.448Z,16.55
2023-05-17T08:05:25.373Z,16.55
2023-05-17T08:07:53.448Z,16.55
2023-05-17T08:10:21.496Z,16.55
2023-05-17T08:12:49.138Z,16.55
2023-05-17T08:15:18.128Z,16.55
2023-05-17T08:17:45.904Z,16.55
2023-05-17T08:20:14.010Z,16.55
2023-05-17T08:22:41.676Z,16.54
2023-05-17T08:25:09.799Z,16.55
2023-05-17T08:27:37.473Z,16.55
2023-05-17T08:30:09.155Z,16.56
2023-05-17T08:32:41.010Z,16.55
2023-05-17T08:35:08.953Z,16.55
2023-05-17T08:37:36.890Z,16.57
2023-05-17T08:40:05.123Z,16.57
2023-05-17T08:42:33.471Z,16.57
2023-05-17T08:45:01.176Z,16.57
2023-05-17T08:47:32.221Z,16.59
2023-05-17T08:50:02.286Z,16.59
2023-05-17T08:52:31.450Z,16.58
2023-05-17T08:54:59.395Z,16.58
2023-05-17T08:57:29.065Z,16.59
2023-05-17T08:59:57.123Z,16.58
2023-05-17T09:02:25.619Z,16.58
2023-05-17T09:04:55.792Z,16.57
2023-05-17T09:07:25.658Z,16.58
2023-05-17T09:09:54.113Z,16.57
2023-05-17T09:12:23.495Z,16.57
2023-05-17T09:14:53.136Z,16.57
2023-05-17T09:17:21.822Z,16.56
2023-05-17T09:19:50.370Z,16.56
2023-05-17T09:22:19.804Z,16.56
2023-05-17T09:24:48.921Z,16.55
2023-05-17T09:27:18.259Z,16.55
2023-05-17T09:29:47.661Z,16.55
2023-05-17T09:32:16.499Z,16.55
2023-05-17T09:34:46.909Z,16.54
2023-05-17T09:37:16.314Z,16.55
2023-05-17T09:39:46.040Z,16.54
2023-05-17T09:42:16.778Z,16.53
2023-05-17T09:44:49.396Z,16.53
2023-05-17T09:47:27.502Z,16.54
2023-05-17T09:49:57.404Z,16.52
2023-05-17T09:52:25.861Z,16.53
2023-05-17T09:54:54.568Z,16.53
2023-05-17T09:57:24.059Z,16.52
2023-05-17T09:59:53.069Z,16.52
2023-05-17T10:02:23.597Z,16.52
2023-05-17T10:04:52.626Z,16.53
2023-05-17T10:07:21.440Z,16.52
2023-05-17T10:09:50.518Z,16.54
2023-05-17T10:12:20.053Z,16.54
2023-05-17T10:14:49.844Z,16.53
2023-05-17T10:17:19.360Z,16.52
2023-05-17T10:19:48.159Z,16.54
2023-05-17T10:22:23.117Z,16.54
2023-05-17T10:24:52.332Z,16.54
2023-05-17T10:27:21.561Z,16.53
2023-05-17T10:29:53.040Z,16.54
2023-05-17T10:32:23.380Z,16.53
2023-05-17T10:35:02.038Z,16.54
2023-05-17T10:37:39.969Z,16.54
2023-05-17T10:40:12.968Z,16.54
2023-05-17T10:42:43.444Z,16.53
2023-05-17T10:45:14.715Z,16.54
2023-05-17T10:47:43.511Z,16.54
2023-05-17T10:50:14.906Z,16.55
2023-05-17T10:52:48.294Z,16.55
2023-05-17T10:55:19.798Z,16.56
2023-05-17T10:58:10.419Z,16.57
2023-05-17T11:00:42.336Z,16.57
2023-05-17T11:03:15.303Z,16.57
2023-05-17T11:05:44.716Z,16.58
2023-05-17T11:08:17.764Z,16.58
2023-05-17T11:11:10.130Z,16.57
2023-05-17T11:13:52.292Z,16.58
2023-05-17T11:16:24.141Z,16.56
2023-05-17T11:18:53.520Z,16.58
2023-05-17T11:21:25.563Z,16.59
2023-05-17T11:23:56.635Z,16.58
2023-05-17T11:26:29.569Z,16.59
2023-05-17T11:29:03.291Z,16.60
2023-05-17T11:31:33.484Z,16.60
2023-05-17T11:34:01.601Z,16.61
2023-05-17T11:36:29.257Z,16.61
2023-05-17T11:39:13.884Z,16.62
2023-05-17T11:41:49.614Z,16.62
2023-05-17T11:44:19.318Z,16.63
2023-05-17T11:46:48.396Z,16.63
2023-05-17T11:49:26.859Z,16.64
2023-05-17T11:52:01.520Z,16.64
2023-05-17T11:54:31.159Z,16.64
2023-05-17T11:56:59.848Z,16.64
2023-05-17T11:59:27.535Z,16.64
2023-05-17T12:01:56.536Z,16.65
2023-05-17T12:04:25.887Z,16.66
2023-05-17T12:06:54.409Z,16.65
2023-05-17T12:09:23.259Z,16.65
2023-05-17T12:11:51.056Z,16.65
2023-05-17T12:14:20.355Z,16.65
2023-05-17T12:16:52.096Z,16.65
2023-05-17T12:19:23.471Z,16.65
2023-05-17T12:21:51.716Z,16.66
2023-05-17T12:24:19.496Z,16.65
2023-05-17T12:26:48.385Z,16.66
2023-05-17T12:29:22.756Z,16.65
2023-05-17T12:31:53.380Z,16.65
2023-05-17T12:34:23.327Z,16.65
2023-05-17T12:36:52.608Z,16.66
2023-05-17T12:39:23.901Z,16.65
2023-05-17T12:41:52.541Z,16.66
2023-05-17T12:44:21.040Z,16.65
2023-05-17T12:46:53.441Z,16.65
2023-05-17T12:49:23.137Z,16.64
2023-05-17T12:51:51.007Z,16.65
2023-05-17T12:54:27.304Z,16.64
2023-05-17T12:56:55.220Z,16.64
2023-05-17T12:59:25.518Z,16.65
2023-05-17T13:01:55.573Z,16.63
2023-05-17T13:04:31.665Z,16.65
2023-05-17T13:07:01.634Z,16.64
2023-05-17T13:09:32.093Z,16.65
2023-05-17T13:12:01.129Z,16.66
2023-05-17T13:14:38.806Z,16.66
2023-05-17T13:17:08.117Z,16.66
2023-05-17T13:19:38.220Z,16.67
2023-05-17T13:22:06.944Z,16.67
2023-05-17T13:24:35.733Z,16.67
2023-05-17T13:27:03.926Z,16.67
2023-05-17T13:29:39.332Z,16.68
2023-05-17T13:32:09.797Z,16.68
2023-05-17T13:34:39.398Z,16.68
2023-05-17T13:37:10.551Z,16.67
2023-05-17T13:39:39.582Z,16.68
2023-05-17T13:42:07.980Z,16.68
2023-05-17T13:44:35.600Z,16.69
2023-05-17T13:47:03.589Z,16.68
2023-05-17T13:49:31.308Z,16.67
2023-05-17T13:52:00.701Z,16.67
2023-05-17T13:54:28.444Z,16.68
2023-05-17T13:56:57.388Z,16.66
2023-05-17T13:59:25.035Z,16.68
2023-05-17T14:01:53.078Z,16.67
2023-05-17T14:04:21.294Z,16.67
2023-05-17T14:06:49.559Z,16.67
2023-05-17T14:09:20.352Z,16.67
2023-05-17T14:11:48.104Z,16.68
2023-05-17T14:14:15.788Z,16.67
2023-05-17T14:16:43.452Z,16.67
2023-05-17T14:19:11.301Z,16.67
2023-05-17T14:21:39.034Z,16.67
2023-05-17T14:24:07.326Z,16.67
2023-05-17T14:26:36.727Z,16.67
2023-05-17T14:29:05.597Z,16.67
2023-05-17T14:31:33.354Z,16.67
2023-05-17T14:34:01.663Z,16.68
2023-05-17T14:36:29.438Z,16.67
2023-05-17T14:38:57.103Z,16.69
2023-05-17T14:41:24.735Z,16.68
2023-05-17T14:43:53.726Z,16.69
2023-05-17T14:46:21.405Z,16.68
2023-05-17T14:48:52.016Z,16.69
2023-05-17T14:51:19.838Z,16.69
2023-05-17T14:53:47.703Z,16.70
2023-05-17T14:56:16.750Z,16.68
2023-05-17T14:58:44.475Z,16.69
2023-05-17T15:01:13.493Z,16.69
2023-05-17T15:03:41.296Z,16.69
2023-05-17T15:06:11.674Z,16.70
2023-05-17T15:08:39.745Z,16.71
2023-05-17T15:11:07.511Z,16.70
2023-05-17T15:13:35.242Z,16.70
2023-05-17T15:16:04.954Z,16.70
2023-05-17T15:18:34.013Z,16.69
2023-05-17T15:21:02.859Z,16.70
2023-05-17T15:23:30.641Z,16.68
2023-05-17T15:25:58.339Z,16.68
2023-05-17T15:28:26.137Z,16.68
2023-05-17T15:31:01.550Z,16.68
2023-05-17T15:33:30.712Z,16.69
2023-05-17T15:35:59.763Z,16.69
2023-05-17T15:38:27.409Z,16.68
2023-05-17T15:41:03.860Z,16.68
2023-05-17T15:43:32.188Z,16.67
2023-05-17T15:46:00.120Z,16.68
2023-05-17T15:48:29.230Z,16.67
2023-05-17T15:50:57.334Z,16.66
2023-05-17T15:53:27.122Z,16.66
2023-05-17T15:55:54.884Z,16.65
2023-05-17T15:58:24.253Z,16.66
2023-05-17T16:00:52.332Z,16.64
2023-05-17T16:03:20.051Z,16.65
2023-05-17T16:05:47.797Z,16.65
2023-05-17T16:08:15.571Z,16.64
2023-05-17T16:10:45.921Z,16.65
2023-05-17T16:13:13.634Z,16.66
2023-05-17T16:15:41.367Z,16.65
2023-05-17T16:18:10.622Z,16.67
2023-05-17T16:20:38.506Z,16.67
2023-05-17T16:23:07.337Z,16.68
2023-05-17T16:25:36.036Z,16.70
2023-05-17T16:28:05.113Z,16.70
2023-05-17T16:30:32.760Z,16.71
2023-05-17T16:33:00.449Z,16.71
2023-05-17T16:35:28.804Z,16.71
2023-05-17T16:37:56.619Z,16.71
2023-05-17T16:40:24.311Z,16.72
2023-05-17T16:42:51.923Z,16.71
2023-05-17T16:45:21.334Z,16.73
2023-05-17T16:47:49.017Z,16.71
2023-05-17T16:50:16.841Z,16.73
2023-05-17T16:52:45.441Z,16.72
2023-05-17T16:55:13.163Z,16.73
2023-05-17T16:57:41.966Z,16.72
2023-05-17T17:00:11.978Z,16.72
2023-05-17T17:02:41.161Z,16.72
2023-05-17T17:05:10.334Z,16.72
2023-05-17T17:07:37.991Z,16.72
2023-05-17T17:10:06.268Z,16.72
2023-05-17T17:12:33.925Z,16.73
2023-05-17T17:15:02.186Z,16.36
2023-05-17T17:17:30.631Z,16.06
2023-05-17T17:19:59.722Z,15.84
2023-05-17T17:22:27.371Z,15.76
2023-05-17T17:24:55.027Z,15.60
2023-05-17T17:27:22.681Z,15.66
2023-05-17T17:29:50.493Z,15.53
2023-05-17T17:32:18.196Z,15.34
2023-05-17T17:34:45.957Z,15.30
2023-05-17T17:37:15.052Z,15.38
2023-05-17T17:39:42.848Z,15.50
2023-05-17T17:42:10.580Z,15.50
2023-05-17T17:44:38.416Z,15.51
2023-05-17T17:47:06.373Z,15.52
2023-05-17T17:49:35.953Z,15.28
2023-05-17T17:52:03.595Z,15.26
2023-05-17T17:54:32.613Z,15.40
2023-05-17T17:57:00.240Z,15.44
2023-05-17T17:59:27.860Z,15.39
2023-05-17T18:01:55.514Z,15.38
2023-05-17T18:04:23.273Z,15.34
2023-05-17T18:06:50.981Z,15.28
2023-05-17T18:09:18.629Z,15.29
2023-05-17T18:11:47.770Z,15.22
2023-05-17T18:14:15.691Z,15.16
2023-05-17T18:16:43.362Z,15.13
2023-05-17T18:19:11.139Z,15.10
2023-05-17T18:21:38.870Z,15.23
2023-05-17T18:24:07.049Z,15.25
2023-05-17T18:26:34.753Z,15.13
2023-05-17T18:29:04.027Z,14.97
2023-05-17T18:31:31.858Z,14.95
2023-05-17T18:33:59.502Z,14.88
2023-05-17T18:36:27.591Z,14.76
2023-05-17T18:38:58.527Z,14.63
2023-05-17T18:41:26.298Z,14.47
2023-05-17T18:43:54.254Z,14.41
2023-05-17T18:46:23.337Z,14.34
2023-05-17T18:48:52.579Z,14.32
2023-05-17T18:51:20.287Z,14.37
2023-05-17T18:53:47.973Z,14.45
2023-05-17T18:56:22.451Z,14.41
2023-05-17T18:58:52.076Z,14.42
2023-05-17T19:01:19.824Z,14.41
2023-05-17T19:03:51.366Z,14.50
2023-05-17T19:06:19.509Z,14.44
2023-05-17T19:08:47.340Z,14.40
2023-05-17T19:11:14.988Z,14.30
2023-05-17T19:13:42.876Z,14.26
2023-05-17T19:16:10.562Z,14.18
2023-05-17T19:18:38.267Z,14.09
2023-05-17T19:21:07.432Z,14.09
2023-05-17T19:23:36.025Z,14.09
2023-05-17T19:26:03.737Z,14.06
2023-05-17T19:28:33.028Z,14.04
2023-05-17T19:31:00.581Z,14.04
2023-05-17T19:33:28.077Z,13.98
2023-05-17T19:35:55.623Z,14.01
2023-05-17T19:38:24.435Z,13.97
2023-05-17T19:40:51.974Z,13.88
2023-05-17T19:43:19.486Z,13.84
2023-05-17T19:45:46.980Z,13.86
2023-05-17T19:48:14.474Z,13.85
2023-05-17T19:50:41.927Z,13.89
2023-05-17T19:53:09.448Z,13.86
2023-05-17T19:55:39.899Z,13.91
2023-05-17T19:58:07.370Z,13.93
2023-05-17T20:00:37.178Z,13.90
2023-05-17T20:03:04.944Z,13.93
2023-05-17T20:05:33.554Z,13.91
2023-05-17T20:08:02.508Z,13.81
2023-05-17T20:10:31.515Z,13.78
2023-05-17T20:13:00.514Z,13.69
2023-05-17T20:15:28.022Z,13.74
2023-05-17T20:17:55.614Z,13.81
2023-05-17T20:20:23.361Z,13.80
2023-05-17T20:22:50.879Z,13.81
2023-05-17T20:25:18.387Z,13.73
2023-05-17T20:27:45.853Z,13.77
2023-05-17T20:30:14.996Z,13.88
2023-05-17T20:32:42.494Z,13.88
2023-05-17T20:35:10.368Z,13.88
2023-05-17T20:37:37.864Z,13.81
2023-05-17T20:40:08.958Z,13.75
2023-05-17T20:42:37.785Z,13.71
2023-05-17T20:45:06.204Z,13.70
2023-05-17T20:47:36.665Z,13.71
2023-05-17T20:50:04.451Z,13.76
2023-05-17T20:52:39.608Z,13.71
2023-05-17T20:55:08.031Z,13.68
2023-05-17T20:57:35.891Z,13.53
2023-05-17T21:00:03.979Z,13.60
2023-05-17T21:02:31.615Z,13.54
2023-05-17T21:05:01.029Z,13.55
2023-05-17T21:07:30.093Z,13.57
2023-05-17T21:09:57.555Z,13.53
2023-05-17T21:12:25.084Z,13.42
2023-05-17T21:15:07.848Z,13.39
2023-05-17T21:17:40.092Z,13.39
2023-05-17T21:20:09.762Z,13.43
2023-05-17T21:22:37.533Z,13.40
2023-05-17T21:25:05.531Z,13.44
2023-05-17T21:27:34.529Z,13.49
2023-05-17T21:30:02.235Z,13.55
2023-05-17T21:32:29.806Z,13.50
2023-05-17T21:34:59.068Z,13.47
2023-05-17T21:37:27.871Z,13.51
2023-05-17T21:39:55.375Z,13.53
2023-05-17T21:42:22.846Z,13.59
2023-05-17T21:44:50.339Z,13.58
2023-05-17T21:47:17.844Z,13.57
2023-05-17T21:49:45.376Z,13.49
2023-05-17T21:52:12.829Z,13.36
2023-05-17T21:54:42.266Z,13.33
2023-05-17T21:57:09.856Z,13.30
2023-05-17T21:59:37.395Z,13.32
2023-05-17T22:02:05.002Z,13.40
2023-05-17T22:04:32.473Z,13.41
2023-05-17T22:06:59.956Z,13.42
2023-05-17T22:09:27.454Z,13.44
2023-05-17T22:11:58.619Z,13.49
2023-05-17T22:14:26.638Z,13.36
2023-05-17T22:16:56.006Z,13.33
2023-05-17T22:19:23.615Z,13.46
2023-05-17T22:21:51.220Z,13.80
2023-05-17T22:24:19.715Z,14.20
2023-05-17T22:26:47.214Z,14.54
2023-05-17T22:29:16.072Z,14.81
2023-05-17T22:31:43.578Z,15.05
2023-05-17T22:34:11.343Z,15.23
2023-05-17T22:36:42.115Z,15.37
2023-05-17T22:39:10.023Z,15.49
2023-05-17T22:41:37.678Z,15.59
2023-05-17T22:44:05.421Z,15.67
2023-05-17T22:46:34.436Z,15.74
2023-05-17T22:49:01.936Z,15.78
2023-05-17T22:51:29.958Z,15.83
2023-05-17T22:53:57.925Z,15.88
2023-05-17T22:56:26.152Z,15.91
2023-05-17T22:58:53.835Z,15.94
2023-05-17T23:01:21.522Z,15.96
2023-05-17T23:03:50.637Z,15.99
2023-05-17T23:06:21.872Z,16.01
2023-05-17T23:08:49.938Z,16.02
2023-05-17T23:11:18.022Z,16.03
2023-05-17T23:13:45.700Z,16.05
2023-05-17T23:16:13.941Z,16.05
2023-05-17T23:18:41.719Z,16.06
2023-05-17T23:21:12.040Z,16.08
2023-05-17T23:23:40.587Z,16.08
2023-05-17T23:26:08.293Z,16.09
2023-05-17T23:28:37.668Z,16.10
2023-05-17T23:31:05.897Z,16.10
2023-05-17T23:33:33.601Z,16.11
2023-05-17T23:36:01.322Z,16.11
2023-05-17T23:38:30.417Z,16.12
2023-05-17T23:40:58.253Z,16.13
2023-05-17T23:43:26.286Z,16.14
2023-05-17T23:45:54.062Z,16.14
2023-05-17T23:48:25.639Z,16.13
2023-05-17T23:50:53.399Z,16.14
2023-05-17T23:53:23.391Z,16.14
2023-05-17T23:55:52.521Z,16.14
2023-05-17T23:58:20.169Z,16.15
